Time;durP1;ratioP1;P1;durP2;ratioP2;P2;SDS_P1;SDS_P2;PMS_P1;PMS_P2;Temp;Humidity;BMP_temperature;BMP_pressure;BME280_temperature;BME280_humidity;BME280_pressure;Samples;Min_cycle;Max_cycle;Signal;HPM_P1;HPM_P2
2022/10/28 00:02:07;;;;;;;0.80;0.80;;;;;;;;;;1826966;76;26361;-57
2022/10/28 00:04:34;;;;;;;0.78;0.78;;;;;;;;;;1849587;76;26712;-57
2022/10/28 00:07:02;;;;;;;0.85;0.80;;;;;;;;;;1868546;76;26831;-57
2022/10/28 00:09:29;;;;;;;0.80;0.80;;;;;;;;;;1848830;76;26240;-57
2022/10/28 00:11:56;;;;;;;1.15;0.72;;;;;;;;;;1841344;76;26330;-57
2022/10/28 00:14:24;;;;;;;0.70;0.70;;;;;;;;;;1859915;76;26284;-57
2022/10/28 00:16:51;;;;;;;0.80;0.80;;;;;;;;;;1844361;76;26323;-53
2022/10/28 00:19:18;;;;;;;0.62;0.60;;;;;;;;;;1871054;76;26283;-53
2022/10/28 00:21:46;;;;;;;0.70;0.70;;;;;;;;;;1840595;76;26713;-57
2022/10/28 00:24:14;;;;;;;1.02;0.90;;;;;;;;;;1871026;76;26240;-57
2022/10/28 00:26:42;;;;;;;0.70;0.70;;;;;;;;;;1840409;76;26750;-57
2022/10/28 00:29:13;;;;;;;1.05;0.75;;;;;;;;;;1835360;76;26255;-57
2022/10/28 00:31:41;;;;;;;0.70;0.70;;;;;;;;;;1830567;76;26360;-57
2022/10/28 00:34:12;;;;;;;0.65;0.65;;;;;;;;;;1839297;76;26675;-57
2022/10/28 00:36:41;;;;;;;0.68;0.68;;;;;;;;;;1839675;76;26275;-57
2022/10/28 00:39:12;;;;;;;0.70;0.70;;;;;;;;;;1830893;76;26759;-57
2022/10/28 00:41:41;;;;;;;0.70;0.70;;;;;;;;;;1826950;76;27193;-57
2022/10/28 00:44:26;;;;;;;0.85;0.70;;;;;;;;;;1855030;76;26273;-57
2022/10/28 00:46:53;;;;;;;0.60;0.60;;;;;;;;;;1826331;76;26271;-57
2022/10/28 00:49:22;;;;;;;0.78;0.78;;;;;;;;;;1826663;76;26349;-57
2022/10/28 00:51:51;;;;;;;0.60;0.60;;;;;;;;;;1839656;76;26271;-57
2022/10/28 00:54:19;;;;;;;1.65;0.60;;;;;;;;;;1838612;76;26325;-57
2022/10/28 00:56:48;;;;;;;2.05;0.70;;;;;;;;;;1881246;74;26345;-57
2022/10/28 00:59:16;;;;;;;0.70;0.70;;;;;;;;;;1894038;74;26189;-57
2022/10/28 01:01:44;;;;;;;0.80;0.80;;;;;;;;;;1892428;74;26251;-57
2022/10/28 01:04:13;;;;;;;0.60;0.60;;;;;;;;;;1894010;74;26725;-58
2022/10/28 01:06:41;;;;;;;0.60;0.60;;;;;;;;;;1891542;74;26750;-57
2022/10/28 01:09:08;;;;;;;0.60;0.60;;;;;;;;;;1893332;74;26255;-57
2022/10/28 01:11:47;;;;;;;0.60;0.60;;;;;;;;;;1893576;74;27514;-58
2022/10/28 01:14:25;;;;;;;0.68;0.68;;;;;;;;;;1891496;76;26249;-57
2022/10/28 01:17:11;;;;;;;0.78;0.78;;;;;;;;;;1893908;74;27036;-57
2022/10/28 01:19:43;;;;;;;0.65;0.65;;;;;;;;;;1893928;75;26765;-58
2022/10/28 01:22:14;;;;;;;0.62;0.62;;;;;;;;;;1894129;75;26193;-57
2022/10/28 01:24:52;;;;;;;0.78;0.78;;;;;;;;;;1892997;74;26201;-57
2022/10/28 01:27:36;;;;;;;0.65;0.65;;;;;;;;;;1892822;74;26776;-58
2022/10/28 01:30:14;;;;;;;0.62;0.62;;;;;;;;;;1892596;74;26272;-57
2022/10/28 01:32:59;;;;;;;0.60;0.60;;;;;;;;;;1892943;74;26267;-58
2022/10/28 01:35:28;;;;;;;0.50;0.50;;;;;;;;;;1878144;74;26314;-58
2022/10/28 01:37:57;;;;;;;0.70;0.70;;;;;;;;;;1883804;74;26284;-58
2022/10/28 01:40:25;;;;;;;0.72;0.72;;;;;;;;;;1893798;74;26306;-58
2022/10/28 01:42:54;;;;;;;1.05;0.53;;;;;;;;;;1890055;74;26303;-58
2022/10/28 01:45:26;;;;;;;0.50;0.50;;;;;;;;;;1892963;74;26233;-58
2022/10/28 01:47:58;;;;;;;0.50;0.50;;;;;;;;;;1894016;76;26330;-58
2022/10/28 01:50:29;;;;;;;0.70;0.60;;;;;;;;;;1892203;76;26307;-58
2022/10/28 01:52:58;;;;;;;0.70;0.70;;;;;;;;;;1886887;76;26229;-58
2022/10/28 01:55:27;;;;;;;0.80;0.80;;;;;;;;;;1893277;74;26333;-58
2022/10/28 01:57:56;;;;;;;0.57;0.57;;;;;;;;;;1875583;75;26574;-58
2022/10/28 02:00:23;;;;;;;1.55;0.60;;;;;;;;;;1859121;75;26330;-58
2022/10/28 02:02:51;;;;;;;0.80;0.78;;;;;;;;;;1878035;75;26315;-58
2022/10/28 02:05:40;;;;;;;0.50;0.50;;;;;;;;;;1877205;75;26236;-58
2022/10/28 02:08:21;;;;;;;0.60;0.60;;;;;;;;;;1875342;75;26307;-58
2022/10/28 02:10:55;;;;;;;0.55;0.55;;;;;;;;;;1876071;75;26866;-58
2022/10/28 02:13:24;;;;;;;0.60;0.60;;;;;;;;;;1868328;75;26244;-58
2022/10/28 02:15:56;;;;;;;1.85;0.75;;;;;;;;;;1876114;75;26264;-58
2022/10/28 02:18:43;;;;;;;0.55;0.55;;;;;;;;;;1875756;75;26453;-58
2022/10/28 02:21:21;;;;;;;0.55;0.55;;;;;;;;;;1873457;75;26841;-58
2022/10/28 02:23:49;;;;;;;0.60;0.60;;;;;;;;;;1878170;76;27281;-58
2022/10/28 02:26:18;;;;;;;0.70;0.70;;;;;;;;;;1877325;75;27059;-58
2022/10/28 02:29:02;;;;;;;0.60;0.60;;;;;;;;;;1876335;75;26247;-58
2022/10/28 02:31:31;;;;;;;0.60;0.60;;;;;;;;;;1874616;76;26375;-58
2022/10/28 02:34:09;;;;;;;0.60;0.60;;;;;;;;;;1869055;75;26778;-58
2022/10/28 02:36:38;;;;;;;0.93;0.60;;;;;;;;;;1872302;75;26245;-58
2022/10/28 02:39:06;;;;;;;0.60;0.60;;;;;;;;;;1884330;75;26669;-58
2022/10/28 02:41:38;;;;;;;0.78;0.60;;;;;;;;;;1877326;74;26256;-58
2022/10/28 02:44:07;;;;;;;0.70;0.70;;;;;;;;;;1875572;75;26205;-58
2022/10/28 02:46:36;;;;;;;0.72;0.72;;;;;;;;;;1874448;75;26260;-58
2022/10/28 02:49:05;;;;;;;0.60;0.60;;;;;;;;;;1875453;75;26318;-58
2022/10/28 02:51:39;;;;;;;0.57;0.57;;;;;;;;;;1865644;75;26244;-58
2022/10/28 02:54:14;;;;;;;0.50;0.50;;;;;;;;;;1863484;75;26253;-58
2022/10/28 02:56:52;;;;;;;0.60;0.60;;;;;;;;;;1882212;74;26678;-58
2022/10/28 02:59:19;;;;;;;0.60;0.60;;;;;;;;;;1875138;74;26268;-58
2022/10/28 03:01:47;;;;;;;0.70;0.70;;;;;;;;;;1912615;74;26245;-58
2022/10/28 03:04:14;;;;;;;0.62;0.62;;;;;;;;;;1892668;76;26594;-58
2022/10/28 03:06:41;;;;;;;0.47;0.47;;;;;;;;;;1893066;76;26556;-58
2022/10/28 03:09:08;;;;;;;0.68;0.68;;;;;;;;;;1893709;74;26242;-58
2022/10/28 03:11:35;;;;;;;0.60;0.60;;;;;;;;;;1894299;74;26232;-58
2022/10/28 03:14:03;;;;;;;0.60;0.60;;;;;;;;;;1894252;74;26305;-58
2022/10/28 03:16:30;;;;;;;0.60;0.60;;;;;;;;;;1894298;74;26318;-58
2022/10/28 03:18:57;;;;;;;0.70;0.70;;;;;;;;;;1892576;74;26723;-58
2022/10/28 03:21:25;;;;;;;0.57;0.57;;;;;;;;;;1894159;74;26252;-58
2022/10/28 03:23:52;;;;;;;0.80;0.80;;;;;;;;;;1893933;74;26377;-56
2022/10/28 03:26:19;;;;;;;0.60;0.60;;;;;;;;;;1890905;74;26193;-56
2022/10/28 03:28:47;;;;;;;0.60;0.60;;;;;;;;;;1893096;74;26290;-57
2022/10/28 03:31:15;;;;;;;0.60;0.60;;;;;;;;;;1896717;74;26224;-57
2022/10/28 03:33:43;;;;;;;0.60;0.60;;;;;;;;;;1893329;76;26212;-57
2022/10/28 03:36:10;;;;;;;0.70;0.70;;;;;;;;;;1893316;74;26251;-57
2022/10/28 03:38:37;;;;;;;0.70;0.70;;;;;;;;;;1892762;74;26256;-57
2022/10/28 03:41:05;;;;;;;0.60;0.60;;;;;;;;;;1893780;76;26267;-57
2022/10/28 03:43:32;;;;;;;0.50;0.50;;;;;;;;;;1893216;74;26232;-53
2022/10/28 03:45:59;;;;;;;0.68;0.68;;;;;;;;;;1889755;74;26761;-56
2022/10/28 03:48:26;;;;;;;0.50;0.50;;;;;;;;;;1893585;74;26759;-54
2022/10/28 03:50:54;;;;;;;0.55;0.55;;;;;;;;;;1894024;76;27374;-55
2022/10/28 03:53:22;;;;;;;0.70;0.70;;;;;;;;;;1891935;74;26252;-53
2022/10/28 03:55:56;;;;;;;0.85;0.70;;;;;;;;;;1890587;74;26693;-53
2022/10/28 03:58:24;;;;;;;0.70;0.70;;;;;;;;;;1894005;74;27329;-52
2022/10/28 04:00:52;;;;;;;0.57;0.57;;;;;;;;;;1893793;74;26224;-55
2022/10/28 04:03:20;;;;;;;0.80;0.80;;;;;;;;;;1877815;76;26731;-54
2022/10/28 04:05:47;;;;;;;0.57;0.57;;;;;;;;;;1893593;74;26234;-52
2022/10/28 04:08:15;;;;;;;0.60;0.60;;;;;;;;;;1889883;74;26263;-55
2022/10/28 04:10:43;;;;;;;0.62;0.62;;;;;;;;;;1893893;76;26209;-52
2022/10/28 04:13:11;;;;;;;0.70;0.70;;;;;;;;;;1894301;76;26217;-52
2022/10/28 04:15:39;;;;;;;0.70;0.70;;;;;;;;;;1893211;74;26310;-52
2022/10/28 04:18:06;;;;;;;0.80;0.80;;;;;;;;;;1893370;74;26310;-53
2022/10/28 04:20:34;;;;;;;0.70;0.70;;;;;;;;;;1893803;76;26961;-51
2022/10/28 04:23:01;;;;;;;0.72;0.72;;;;;;;;;;1894265;76;26333;-55
2022/10/28 04:25:28;;;;;;;0.70;0.70;;;;;;;;;;1894037;74;26244;-53
2022/10/28 04:27:56;;;;;;;1.15;0.70;;;;;;;;;;1893698;76;26282;-51
2022/10/28 04:30:23;;;;;;;0.53;0.53;;;;;;;;;;1893806;74;26181;-55
2022/10/28 04:32:50;;;;;;;0.80;0.80;;;;;;;;;;1893020;75;27387;-52
2022/10/28 04:35:18;;;;;;;0.70;0.70;;;;;;;;;;1893781;74;26833;-52
2022/10/28 04:37:45;;;;;;;0.72;0.72;;;;;;;;;;1893278;74;26703;-54
2022/10/28 04:40:12;;;;;;;0.70;0.70;;;;;;;;;;1892622;74;26185;-53
2022/10/28 04:42:40;;;;;;;0.60;0.60;;;;;;;;;;1893700;74;26770;-52
2022/10/28 04:45:08;;;;;;;0.60;0.60;;;;;;;;;;1849130;76;26196;-57
2022/10/28 04:47:35;;;;;;;0.60;0.60;;;;;;;;;;1848713;76;26266;-54
2022/10/28 04:50:03;;;;;;;1.00;1.00;;;;;;;;;;1816821;77;26221;-56
2022/10/28 04:52:30;;;;;;;1.05;0.90;;;;;;;;;;1810675;77;26281;-57
2022/10/28 04:54:57;;;;;;;1.32;1.00;;;;;;;;;;1844775;76;26256;-56
2022/10/28 04:57:25;;;;;;;1.80;1.00;;;;;;;;;;1840182;76;27285;-55
2022/10/28 04:59:52;;;;;;;2.77;1.40;;;;;;;;;;1819751;76;26358;-56
2022/10/28 05:02:21;;;;;;;3.60;1.32;;;;;;;;;;1820450;76;26738;-57
2022/10/28 05:04:48;;;;;;;1.72;1.17;;;;;;;;;;1829029;76;26744;-57
2022/10/28 05:07:15;;;;;;;3.08;1.25;;;;;;;;;;1789278;78;26271;-51
2022/10/28 05:09:43;;;;;;;3.90;1.47;;;;;;;;;;1834773;76;26243;-55
2022/10/28 05:12:10;;;;;;;5.78;1.77;;;;;;;;;;1829671;76;26249;-57
2022/10/28 05:14:37;;;;;;;3.33;1.40;;;;;;;;;;1830074;76;26268;-57
2022/10/28 05:17:04;;;;;;;4.78;1.82;;;;;;;;;;1859551;77;26233;-60
2022/10/28 05:19:31;;;;;;;6.53;1.70;;;;;;;;;;1830428;76;26303;-58
2022/10/28 05:21:59;;;;;;;3.27;1.45;;;;;;;;;;1824036;76;26355;-57
2022/10/28 05:24:26;;;;;;;7.12;1.90;;;;;;;;;;1830600;76;26260;-57
2022/10/28 05:26:53;;;;;;;5.05;1.98;;;;;;;;;;1831552;76;27604;-57
2022/10/28 05:29:20;;;;;;;6.80;1.60;;;;;;;;;;1828836;76;26269;-57
2022/10/28 05:31:48;;;;;;;8.10;1.75;;;;;;;;;;1836074;76;26330;-57
2022/10/28 05:34:15;;;;;;;5.95;2.02;;;;;;;;;;1811784;76;26317;-57
2022/10/28 05:36:42;;;;;;;4.03;1.65;;;;;;;;;;1830920;76;26575;-57
2022/10/28 05:39:11;;;;;;;3.55;1.62;;;;;;;;;;1833474;76;26394;-57
2022/10/28 05:41:39;;;;;;;7.33;1.70;;;;;;;;;;1830254;76;26272;-57
2022/10/28 05:44:06;;;;;;;4.50;1.60;;;;;;;;;;1831390;76;26213;-56
2022/10/28 05:46:33;;;;;;;3.85;1.32;;;;;;;;;;1832223;76;26236;-57
2022/10/28 05:49:00;;;;;;;5.15;1.30;;;;;;;;;;1825191;76;26248;-57
2022/10/28 05:51:28;;;;;;;2.52;1.60;;;;;;;;;;1831563;76;26248;-57
2022/10/28 05:53:55;;;;;;;2.27;1.50;;;;;;;;;;1824142;76;26274;-57
2022/10/28 05:56:22;;;;;;;5.40;1.75;;;;;;;;;;1830587;77;26248;-57
2022/10/28 05:58:49;;;;;;;4.42;1.42;;;;;;;;;;1831678;76;26273;-58
2022/10/28 06:01:17;;;;;;;3.60;1.35;;;;;;;;;;1831750;76;26280;-57
2022/10/28 06:03:46;;;;;;;3.50;1.82;;;;;;;;;;1830315;76;26288;-52
2022/10/28 06:06:13;;;;;;;2.50;1.42;;;;;;;;;;1879802;76;26934;-56
2022/10/28 06:08:40;;;;;;;3.35;1.50;;;;;;;;;;1878830;76;26301;-57
2022/10/28 06:11:09;;;;;;;3.15;1.30;;;;;;;;;;1878302;76;26222;-55
2022/10/28 06:13:36;;;;;;;3.83;1.20;;;;;;;;;;1876519;75;26218;-54
2022/10/28 06:16:04;;;;;;;1.42;1.20;;;;;;;;;;1877897;75;26181;-57
2022/10/28 06:18:31;;;;;;;1.92;1.22;;;;;;;;;;1830925;76;26244;-57
2022/10/28 06:20:58;;;;;;;3.87;1.40;;;;;;;;;;1884417;74;26249;-58
2022/10/28 06:23:27;;;;;;;1.90;1.20;;;;;;;;;;1877030;75;26297;-57
2022/10/28 06:26:02;;;;;;;2.65;1.25;;;;;;;;;;1878132;75;26276;-58
2022/10/28 06:28:30;;;;;;;3.47;1.12;;;;;;;;;;1878260;76;26781;-57
2022/10/28 06:31:04;;;;;;;1.37;1.02;;;;;;;;;;1866904;75;26269;-57
2022/10/28 06:33:32;;;;;;;2.47;1.20;;;;;;;;;;1879224;74;26717;-58
2022/10/28 06:35:59;;;;;;;4.90;1.40;;;;;;;;;;1878450;75;26273;-57
2022/10/28 06:38:27;;;;;;;1.67;1.15;;;;;;;;;;1882989;74;26621;-58
2022/10/28 06:40:56;;;;;;;1.87;1.02;;;;;;;;;;1878174;75;26273;-58
2022/10/28 06:43:24;;;;;;;2.25;1.10;;;;;;;;;;1859104;74;26197;-57
2022/10/28 06:45:55;;;;;;;0.95;0.90;;;;;;;;;;1878842;76;26378;-57
2022/10/28 06:48:20;;;;;;;1.10;0.90;;;;;;;;;;1865626;75;26261;-58
2022/10/28 06:50:47;;;;;;;2.35;1.07;;;;;;;;;;1878263;75;27290;-57
2022/10/28 06:53:14;;;;;;;2.08;1.02;;;;;;;;;;1874390;75;26797;-57
2022/10/28 06:55:47;;;;;;;1.52;0.80;;;;;;;;;;1869920;75;26662;-56
2022/10/28 06:58:11;;;;;;;1.40;0.80;;;;;;;;;;1876784;74;26305;-57
2022/10/28 07:00:38;;;;;;;1.02;0.95;;;;;;;;;;1858972;75;26414;-58
2022/10/28 07:03:05;;;;;;;1.30;1.10;;;;;;;;;;1878108;75;26299;-58
2022/10/28 07:05:32;;;;;;;1.27;1.10;;;;;;;;;;1878315;76;26251;-58
2022/10/28 07:08:00;;;;;;;1.25;0.80;;;;;;;;;;1878561;75;26237;-57
2022/10/28 07:10:27;;;;;;;1.10;0.80;;;;;;;;;;1878908;76;26296;-58
2022/10/28 07:12:54;;;;;;;0.68;0.68;;;;;;;;;;1853438;75;26689;-58
2022/10/28 07:15:22;;;;;;;0.85;0.85;;;;;;;;;;1866625;75;26761;-57
2022/10/28 07:17:53;;;;;;;0.90;0.90;;;;;;;;;;1890154;75;26371;-58
2022/10/28 07:20:20;;;;;;;0.90;0.90;;;;;;;;;;1879260;76;26242;-59
2022/10/28 07:22:48;;;;;;;0.70;0.70;;;;;;;;;;1873813;75;26264;-59
2022/10/28 07:25:15;;;;;;;3.80;1.62;;;;;;;;;;1879091;75;26257;-59
2022/10/28 07:27:42;;;;;;;0.80;0.80;;;;;;;;;;1873725;75;26358;-59
2022/10/28 07:30:10;;;;;;;0.80;0.80;;;;;;;;;;1877174;75;26240;-59
2022/10/28 07:32:38;;;;;;;1.67;0.70;;;;;;;;;;1878727;75;26237;-58
2022/10/28 07:35:05;;;;;;;0.68;0.68;;;;;;;;;;1878195;76;26249;-59
2022/10/28 07:37:32;;;;;;;0.60;0.60;;;;;;;;;;1877568;75;26292;-59
2022/10/28 07:40:00;;;;;;;0.60;0.60;;;;;;;;;;1873443;76;26705;-59
2022/10/28 07:42:27;;;;;;;0.60;0.60;;;;;;;;;;1870693;75;26268;-59
2022/10/28 07:44:54;;;;;;;0.70;0.70;;;;;;;;;;1878379;74;26722;-59
2022/10/28 07:47:21;;;;;;;2.00;0.70;;;;;;;;;;1878570;75;27332;-58
2022/10/28 07:49:49;;;;;;;0.60;0.60;;;;;;;;;;1878504;75;26768;-59
2022/10/28 07:52:16;;;;;;;1.47;0.80;;;;;;;;;;1878917;75;26303;-59
2022/10/28 07:54:43;;;;;;;0.60;0.60;;;;;;;;;;1876014;74;26205;-59
2022/10/28 07:57:10;;;;;;;0.60;0.60;;;;;;;;;;1878099;74;26164;-58
2022/10/28 07:59:38;;;;;;;0.60;0.60;;;;;;;;;;1880876;73;26277;-59
2022/10/28 08:02:05;;;;;;;0.70;0.70;;;;;;;;;;1877985;76;26329;-59
2022/10/28 08:04:32;;;;;;;0.70;0.70;;;;;;;;;;1823317;77;26259;-59
2022/10/28 08:06:59;;;;;;;0.65;0.65;;;;;;;;;;1790545;79;27047;-58
2022/10/28 08:09:27;;;;;;;0.60;0.60;;;;;;;;;;1800431;79;26250;-59
2022/10/28 08:11:55;;;;;;;0.68;0.68;;;;;;;;;;1813058;79;26254;-58
2022/10/28 08:14:23;;;;;;;0.60;0.60;;;;;;;;;;1813413;79;26285;-58
2022/10/28 08:16:50;;;;;;;0.70;0.70;;;;;;;;;;1816434;78;26263;-58
2022/10/28 08:19:17;;;;;;;0.65;0.65;;;;;;;;;;1824356;78;26258;-59
2022/10/28 08:21:45;;;;;;;1.02;0.70;;;;;;;;;;1810641;79;26231;-59
2022/10/28 08:24:12;;;;;;;0.70;0.70;;;;;;;;;;1813105;79;26223;-58
2022/10/28 08:26:39;;;;;;;0.70;0.70;;;;;;;;;;1813230;78;26285;-58
2022/10/28 08:29:07;;;;;;;0.60;0.60;;;;;;;;;;1812585;79;26266;-56
2022/10/28 08:31:34;;;;;;;0.65;0.65;;;;;;;;;;1812191;79;26282;-56
2022/10/28 08:34:02;;;;;;;0.70;0.70;;;;;;;;;;1812513;79;26270;-56
2022/10/28 08:36:29;;;;;;;0.68;0.68;;;;;;;;;;1809177;79;25628;-56
2022/10/28 08:38:59;;;;;;;0.50;0.50;;;;;;;;;;1813442;77;26731;-56
2022/10/28 08:41:42;;;;;;;0.78;0.60;;;;;;;;;;1813211;78;26686;-54
2022/10/28 08:44:16;;;;;;;0.70;0.70;;;;;;;;;;1810246;79;26240;-56
2022/10/28 08:47:02;;;;;;;0.62;0.62;;;;;;;;;;1811933;79;26222;-55
2022/10/28 08:49:31;;;;;;;1.82;0.57;;;;;;;;;;1813430;79;26931;-57
2022/10/28 08:52:00;;;;;;;0.60;0.60;;;;;;;;;;1813451;79;26262;-57
2022/10/28 08:54:32;;;;;;;0.62;0.62;;;;;;;;;;1813154;79;26300;-56
2022/10/28 08:57:00;;;;;;;0.72;0.62;;;;;;;;;;1813294;78;26745;-58
2022/10/28 08:59:32;;;;;;;0.70;0.70;;;;;;;;;;1806367;79;26241;-58
2022/10/28 09:02:00;;;;;;;0.70;0.70;;;;;;;;;;1817085;79;26270;-58
2022/10/28 09:04:29;;;;;;;0.70;0.70;;;;;;;;;;1817432;77;26266;-58
2022/10/28 09:06:56;;;;;;;0.60;0.60;;;;;;;;;;1813049;77;26250;-58
2022/10/28 09:09:24;;;;;;;0.65;0.65;;;;;;;;;;1818446;77;26289;-58
2022/10/28 09:12:08;;;;;;;0.50;0.50;;;;;;;;;;1811622;77;26588;-58
2022/10/28 09:14:40;;;;;;;0.60;0.60;;;;;;;;;;1809026;77;26698;-58
2022/10/28 09:17:19;;;;;;;0.70;0.70;;;;;;;;;;1815106;79;26772;-55
2022/10/28 09:19:50;;;;;;;0.62;0.62;;;;;;;;;;1817239;79;26311;-57
2022/10/28 09:22:19;;;;;;;0.50;0.50;;;;;;;;;;1817708;79;26915;-58
2022/10/28 09:24:48;;;;;;;0.50;0.50;;;;;;;;;;1811998;77;26677;-58
2022/10/28 09:27:33;;;;;;;0.60;0.60;;;;;;;;;;1816431;77;26265;-57
2022/10/28 09:30:11;;;;;;;0.60;0.60;;;;;;;;;;1803761;77;26754;-58
2022/10/28 09:32:40;;;;;;;0.60;0.60;;;;;;;;;;1796381;77;26225;-58
2022/10/28 09:35:09;;;;;;;0.55;0.53;;;;;;;;;;1820680;77;26196;-57
2022/10/28 09:37:38;;;;;;;0.50;0.50;;;;;;;;;;1798845;77;26262;-57
2022/10/28 09:40:06;;;;;;;0.50;0.50;;;;;;;;;;1817627;77;26258;-57
2022/10/28 09:42:38;;;;;;;0.70;0.70;;;;;;;;;;1816518;79;26325;-57
2022/10/28 09:45:07;;;;;;;0.57;0.57;;;;;;;;;;1814370;77;26266;-57
2022/10/28 09:47:36;;;;;;;0.50;0.50;;;;;;;;;;1812947;77;26271;-56
2022/10/28 09:50:06;;;;;;;0.62;0.62;;;;;;;;;;1816608;77;26203;-57
2022/10/28 09:52:35;;;;;;;0.60;0.60;;;;;;;;;;1817633;79;26954;-57
2022/10/28 09:55:03;;;;;;;0.57;0.57;;;;;;;;;;1807571;77;26659;-57
2022/10/28 09:57:31;;;;;;;0.50;0.50;;;;;;;;;;1806680;77;26707;-58
2022/10/28 09:59:59;;;;;;;0.72;0.72;;;;;;;;;;1817584;77;26291;-58
2022/10/28 10:02:27;;;;;;;0.70;0.70;;;;;;;;;;1806831;77;26758;-58
2022/10/28 10:04:56;;;;;;;0.60;0.60;;;;;;;;;;1809482;77;26337;-58
2022/10/28 10:07:25;;;;;;;0.60;0.60;;;;;;;;;;1809837;77;26268;-58
2022/10/28 10:09:52;;;;;;;0.53;0.53;;;;;;;;;;1809543;77;26309;-56
2022/10/28 10:12:20;;;;;;;0.60;0.60;;;;;;;;;;1812188;77;26317;-57
2022/10/28 10:14:49;;;;;;;0.70;0.70;;;;;;;;;;1827319;78;26237;-58
2022/10/28 10:17:18;;;;;;;0.60;0.60;;;;;;;;;;1820047;77;26277;-58
2022/10/28 10:19:59;;;;;;;0.70;0.70;;;;;;;;;;1832382;77;26271;-58
2022/10/28 10:22:36;;;;;;;0.70;0.70;;;;;;;;;;1832540;77;26318;-58
2022/10/28 10:25:05;;;;;;;0.70;0.70;;;;;;;;;;1828431;77;26272;-58
2022/10/28 10:27:33;;;;;;;0.70;0.70;;;;;;;;;;1827537;78;26258;-58
2022/10/28 10:30:00;;;;;;;0.65;0.65;;;;;;;;;;1828909;77;26730;-58
2022/10/28 10:32:31;;;;;;;0.80;0.80;;;;;;;;;;1831982;78;26376;-58
2022/10/28 10:35:18;;;;;;;0.62;0.62;;;;;;;;;;1832162;77;26321;-58
2022/10/28 10:37:47;;;;;;;1.75;0.80;;;;;;;;;;1830705;77;26259;-56
2022/10/28 10:40:19;;;;;;;0.75;0.75;;;;;;;;;;1826454;77;26371;-58
2022/10/28 10:42:46;;;;;;;0.82;0.82;;;;;;;;;;1831707;77;26353;-58
2022/10/28 10:45:17;;;;;;;0.90;0.80;;;;;;;;;;1830737;78;26828;-57
2022/10/28 10:47:45;;;;;;;0.82;0.80;;;;;;;;;;1829622;77;26281;-58
2022/10/28 10:50:26;;;;;;;0.70;0.70;;;;;;;;;;1832477;77;26259;-58
2022/10/28 10:52:54;;;;;;;0.80;0.80;;;;;;;;;;1827926;77;26293;-58
2022/10/28 10:55:23;;;;;;;0.70;0.70;;;;;;;;;;1829477;77;26328;-58
2022/10/28 10:57:51;;;;;;;0.60;0.60;;;;;;;;;;1823188;77;27378;-58
2022/10/28 11:00:20;;;;;;;0.80;0.80;;;;;;;;;;1829424;77;26259;-58
2022/10/28 11:02:53;;;;;;;0.80;0.80;;;;;;;;;;1832054;78;26377;-58
2022/10/28 11:05:22;;;;;;;0.72;0.70;;;;;;;;;;1832113;78;26286;-62
2022/10/28 11:07:50;;;;;;;1.07;0.98;;;;;;;;;;1833830;77;26346;-58
2022/10/28 11:10:28;;;;;;;0.70;0.70;;;;;;;;;;1831472;77;26549;-58
2022/10/28 11:12:56;;;;;;;0.80;0.80;;;;;;;;;;1833037;77;26337;-58
2022/10/28 11:15:25;;;;;;;0.80;0.80;;;;;;;;;;1832598;77;26243;-57
2022/10/28 11:18:00;;;;;;;1.12;0.70;;;;;;;;;;1831651;77;26265;-58
2022/10/28 11:20:30;;;;;;;0.70;0.70;;;;;;;;;;1828993;77;26194;-58
2022/10/28 11:23:02;;;;;;;0.60;0.60;;;;;;;;;;1830651;78;26446;-58
2022/10/28 11:25:31;;;;;;;0.75;0.75;;;;;;;;;;1832327;77;27585;-58
2022/10/28 11:28:16;;;;;;;0.78;0.60;;;;;;;;;;1832416;78;26773;-58
2022/10/28 11:31:01;;;;;;;1.60;0.70;;;;;;;;;;1832456;77;26206;-58
2022/10/28 11:33:47;;;;;;;0.95;0.82;;;;;;;;;;1833278;77;26829;-57
2022/10/28 11:36:19;;;;;;;0.60;0.60;;;;;;;;;;1842581;77;26726;-58
2022/10/28 11:38:51;;;;;;;0.60;0.60;;;;;;;;;;1823400;77;26398;-58
2022/10/28 11:41:35;;;;;;;0.68;0.68;;;;;;;;;;1824685;77;26423;-58
2022/10/28 11:44:04;;;;;;;0.60;0.60;;;;;;;;;;1816354;77;26343;-58
2022/10/28 11:46:36;;;;;;;0.85;0.70;;;;;;;;;;1832229;77;26321;-58
2022/10/28 11:49:08;;;;;;;0.65;0.65;;;;;;;;;;1832833;77;26336;-58
2022/10/28 11:51:53;;;;;;;1.07;0.60;;;;;;;;;;1829663;78;26285;-58
2022/10/28 11:54:41;;;;;;;0.50;0.50;;;;;;;;;;1832557;77;26315;-58
2022/10/28 11:57:09;;;;;;;0.60;0.60;;;;;;;;;;1828790;77;26313;-58
2022/10/28 11:59:41;;;;;;;0.72;0.72;;;;;;;;;;1832326;77;26268;-57
2022/10/28 12:02:26;;;;;;;0.70;0.70;;;;;;;;;;1831042;77;26818;-58
2022/10/28 12:05:10;;;;;;;0.70;0.70;;;;;;;;;;1814927;78;26329;-57
2022/10/28 12:07:57;;;;;;;0.50;0.50;;;;;;;;;;1831045;78;26768;-57
2022/10/28 12:10:29;;;;;;;0.70;0.70;;;;;;;;;;1826404;77;26258;-57
2022/10/28 12:12:58;;;;;;;0.65;0.65;;;;;;;;;;1832199;77;26253;-51
2022/10/28 12:15:41;;;;;;;0.60;0.60;;;;;;;;;;1831522;77;26258;-54
2022/10/28 12:18:10;;;;;;;0.60;0.60;;;;;;;;;;1829084;78;26706;-53
2022/10/28 12:20:42;;;;;;;0.80;0.60;;;;;;;;;;1830678;78;26804;-52
2022/10/28 12:23:11;;;;;;;0.68;0.68;;;;;;;;;;1824784;78;26332;-52
2022/10/28 12:25:39;;;;;;;0.70;0.70;;;;;;;;;;1830818;77;26269;-52
2022/10/28 12:28:08;;;;;;;0.60;0.60;;;;;;;;;;1831747;77;25937;-53
2022/10/28 12:30:37;;;;;;;0.70;0.70;;;;;;;;;;1831901;77;26690;-55
2022/10/28 12:33:06;;;;;;;0.80;0.80;;;;;;;;;;1833086;77;26324;-55
2022/10/28 12:35:37;;;;;;;0.60;0.60;;;;;;;;;;1832718;77;26299;-63
2022/10/28 12:38:09;;;;;;;1.42;0.70;;;;;;;;;;1832265;77;26227;-52
2022/10/28 12:40:37;;;;;;;1.30;0.75;;;;;;;;;;1817236;78;26207;-55
2022/10/28 12:43:06;;;;;;;1.25;0.70;;;;;;;;;;1831122;77;26301;-54
2022/10/28 12:45:34;;;;;;;0.80;0.80;;;;;;;;;;1832167;77;26271;-53
2022/10/28 12:48:03;;;;;;;0.70;0.70;;;;;;;;;;1832023;77;26316;-51
2022/10/28 12:50:41;;;;;;;0.72;0.70;;;;;;;;;;1831368;77;26266;-52
2022/10/28 12:53:26;;;;;;;0.70;0.70;;;;;;;;;;1816708;78;26281;-53
2022/10/28 12:55:57;;;;;;;0.80;0.80;;;;;;;;;;1832286;77;26261;-53
2022/10/28 12:58:35;;;;;;;0.80;0.80;;;;;;;;;;1842593;77;26820;-52
2022/10/28 13:01:04;;;;;;;0.78;0.78;;;;;;;;;;1831475;77;26417;-48
2022/10/28 13:03:31;;;;;;;0.75;0.75;;;;;;;;;;1823447;77;26320;-55
2022/10/28 13:06:12;;;;;;;0.80;0.80;;;;;;;;;;1806922;77;26239;-51
2022/10/28 13:08:41;;;;;;;0.80;0.80;;;;;;;;;;1835093;77;26246;-54
2022/10/28 13:11:22;;;;;;;0.80;0.80;;;;;;;;;;1822880;77;26226;-51
2022/10/28 13:13:57;;;;;;;0.80;0.80;;;;;;;;;;1823876;77;26288;-52
2022/10/28 13:16:28;;;;;;;0.85;0.85;;;;;;;;;;1790189;77;26321;-50
2022/10/28 13:19:14;;;;;;;0.80;0.80;;;;;;;;;;1821330;77;26312;-54
2022/10/28 13:21:52;;;;;;;0.90;0.90;;;;;;;;;;1821850;77;26378;-50
2022/10/28 13:24:33;;;;;;;1.00;1.00;;;;;;;;;;1796943;78;26429;-50
2022/10/28 13:27:04;;;;;;;0.90;0.90;;;;;;;;;;1821180;77;26270;-52
2022/10/28 13:29:34;;;;;;;0.80;0.80;;;;;;;;;;1823329;77;26259;-55
2022/10/28 13:32:01;;;;;;;0.90;0.90;;;;;;;;;;1814554;77;26254;-57
2022/10/28 13:34:30;;;;;;;0.75;0.75;;;;;;;;;;1827496;76;26280;-55
2022/10/28 13:36:59;;;;;;;0.98;0.98;;;;;;;;;;1826502;76;26292;-56
2022/10/28 13:39:33;;;;;;;2.35;1.32;;;;;;;;;;1826743;76;26298;-57
2022/10/28 13:42:16;;;;;;;4.42;1.10;;;;;;;;;;1835505;76;26266;-59
2022/10/28 13:44:47;;;;;;;3.47;1.33;;;;;;;;;;1808086;76;28848;-54
2022/10/28 13:47:16;;;;;;;3.98;1.40;;;;;;;;;;1823839;76;26264;-55
2022/10/28 13:50:02;;;;;;;3.85;1.42;;;;;;;;;;1820035;76;26316;-58
2022/10/28 13:52:29;;;;;;;2.58;1.50;;;;;;;;;;1814767;77;26856;-57
2022/10/28 13:55:00;;;;;;;8.03;1.57;;;;;;;;;;1826039;76;26538;-57
2022/10/28 13:57:28;;;;;;;4.37;1.30;;;;;;;;;;1820754;76;26707;-56
2022/10/28 13:59:57;;;;;;;3.87;1.60;;;;;;;;;;1831804;76;27213;-62
2022/10/28 14:02:26;;;;;;;6.40;1.50;;;;;;;;;;1851056;75;26637;-59
2022/10/28 14:04:55;;;;;;;4.05;1.32;;;;;;;;;;1867135;76;26318;-54
2022/10/28 14:07:25;;;;;;;3.58;1.50;;;;;;;;;;1856246;76;26266;-59
2022/10/28 14:09:53;;;;;;;3.83;1.37;;;;;;;;;;1856156;76;26351;-61
2022/10/28 14:12:25;;;;;;;2.87;1.60;;;;;;;;;;1857655;76;26260;-61
2022/10/28 14:14:57;;;;;;;1.40;1.20;;;;;;;;;;1859895;76;26885;-60
2022/10/28 14:17:25;;;;;;;5.00;1.40;;;;;;;;;;1864556;76;27627;-60
2022/10/28 14:19:53;;;;;;;6.62;1.32;;;;;;;;;;1851802;76;26731;-60
2022/10/28 14:22:28;;;;;;;2.22;1.60;;;;;;;;;;1858582;76;26248;-59
2022/10/28 14:24:55;;;;;;;2.08;1.47;;;;;;;;;;1856006;76;26258;-62
2022/10/28 14:27:42;;;;;;;1.30;1.10;;;;;;;;;;1856586;76;26279;-64
2022/10/28 14:30:14;;;;;;;1.52;1.40;;;;;;;;;;1860934;76;27606;-60
2022/10/28 14:32:43;;;;;;;3.98;1.65;;;;;;;;;;1854601;76;25676;-57
2022/10/28 14:35:14;;;;;;;2.47;1.20;;;;;;;;;;1856879;76;26315;-58
2022/10/28 14:37:49;;;;;;;1.57;1.10;;;;;;;;;;1859717;76;26307;-60
2022/10/28 14:40:18;;;;;;;2.55;1.22;;;;;;;;;;1861707;76;26265;-58
2022/10/28 14:42:58;;;;;;;2.58;1.27;;;;;;;;;;1865701;75;26260;-58
2022/10/28 14:45:30;;;;;;;1.75;1.32;;;;;;;;;;1854051;76;26264;-58
2022/10/28 14:48:16;;;;;;;1.30;1.20;;;;;;;;;;1844107;76;26636;-58
2022/10/28 14:50:49;;;;;;;1.80;0.95;;;;;;;;;;1856711;76;26771;-58
2022/10/28 14:53:21;;;;;;;3.47;1.12;;;;;;;;;;1858506;76;26311;-56
2022/10/28 14:55:51;;;;;;;1.10;1.00;;;;;;;;;;1837971;77;26384;-59
2022/10/28 14:58:19;;;;;;;1.95;0.90;;;;;;;;;;1868334;75;26310;-58
2022/10/28 15:00:58;;;;;;;1.15;1.00;;;;;;;;;;1872373;75;26366;-57
2022/10/28 15:03:25;;;;;;;1.02;1.00;;;;;;;;;;1852695;75;26973;-57